Time;durP1;ratioP1;P1;durP2;ratioP2;P2;SDS_P1;SDS_P2;PMS_P1;PMS_P2;Temp;Humidity;BMP_temperature;BMP_pressure;BME280_temperature;BME280_humidity;BME280_pressure;Samples;Min_cycle;Max_cycle;Signal;HPM_P1;HPM_P2
2022/06/12 00:02:11;;;;;;;9.90;2.80;;;12.50;99.90;;;;;;5124559;27;20149;-69
2022/06/12 00:04:37;;;;;;;9.85;3.70;;;12.50;99.90;;;;;;5122797;27;20027;-69
2022/06/12 00:07:03;;;;;;;6.30;2.90;;;12.50;99.90;;;;;;5123572;27;20039;-67
2022/06/12 00:09:28;;;;;;;8.55;3.40;;;12.50;99.90;;;;;;5122164;27;20117;-67
2022/06/12 00:11:54;;;;;;;7.88;2.97;;;12.70;99.90;;;;;;5130265;27;20038;-72
2022/06/12 00:14:20;;;;;;;;;;;12.50;99.90;;;;;;5142402;27;20043;-72
2022/06/12 00:16:46;;;;;;;10.45;3.40;;;12.80;99.90;;;;;;5120973;27;20316;-71
2022/06/12 00:19:13;;;;;;;9.18;3.65;;;12.40;99.90;;;;;;5142404;27;20031;-72
2022/06/12 00:21:40;;;;;;;10.32;3.58;;;12.50;99.90;;;;;;5140671;27;20039;-71
2022/06/12 00:24:10;;;;;;;6.95;3.45;;;12.50;99.90;;;;;;5123926;27;20046;-72
2022/06/12 00:26:39;;;;;;;12.60;3.80;;;12.40;99.90;;;;;;5140387;27;20045;-71
2022/06/12 00:29:29;;;;;;;12.98;3.90;;;12.60;99.90;;;;;;5124475;27;20121;-72
2022/06/12 00:32:08;;;;;;;11.90;3.47;;;12.80;99.90;;;;;;5141699;27;20051;-71
2022/06/12 00:34:38;;;;;;;10.95;3.97;;;12.50;99.90;;;;;;5119741;27;20530;-71
2022/06/12 00:37:04;;;;;;;9.48;4.63;;;12.50;99.90;;;;;;5126130;27;20508;-72
2022/06/12 00:39:32;;;;;;;12.02;4.45;;;12.40;99.90;;;;;;5129433;27;20039;-71
2022/06/12 00:41:59;;;;;;;11.00;4.85;;;12.40;99.90;;;;;;5131198;27;20078;-70
2022/06/12 00:44:31;;;;;;;8.30;4.45;;;12.40;99.90;;;;;;5125072;27;20418;-70
2022/06/12 00:47:00;;;;;;;10.20;4.88;;;12.30;99.90;;;;;;5126971;27;20059;-71
2022/06/12 00:49:46;;;;;;;12.98;5.63;;;13.10;99.90;;;;;;5127852;27;20080;-71
2022/06/12 00:52:27;;;;;;;9.07;3.90;;;11.80;99.90;;;;;;5125071;27;20070;-71
2022/06/12 00:54:58;;;;;;;11.15;4.20;;;12.20;99.90;;;;;;5123866;27;20046;-71
2022/06/12 00:57:26;;;;;;;11.45;4.13;;;12.40;99.90;;;;;;5130867;27;20045;-71
2022/06/12 00:59:59;;;;;;;10.82;3.60;;;12.20;99.90;;;;;;5125704;27;20045;-71
2022/06/12 01:02:29;;;;;;;11.05;4.75;;;12.40;99.90;;;;;;5146541;27;20030;-71
2022/06/12 01:07:46;;;;;;;8.75;3.67;;;12.20;99.90;;;;;;5145763;27;20039;-70
2022/06/12 01:10:14;;;;;;;7.68;3.67;;;12.20;99.90;;;;;;5126872;27;20055;-72
2022/06/12 01:12:44;;;;;;;11.57;4.75;;;12.10;99.90;;;;;;5150347;27;20083;-71
2022/06/12 01:15:18;;;;;;;10.27;4.00;;;12.30;99.90;;;;;;5126316;27;20049;-71
2022/06/12 01:17:45;;;;;;;10.35;4.90;;;12.20;99.90;;;;;;5130588;27;20066;-71
2022/06/12 01:20:16;;;;;;;10.77;3.70;;;12.10;99.90;;;;;;5126674;27;20035;-71
2022/06/12 01:23:07;;;;;;;9.60;3.53;;;12.10;99.90;;;;;;5127087;27;20041;-71
2022/06/12 01:25:58;;;;;;;11.57;3.58;;;12.10;99.90;;;;;;5124011;27;20075;-71
2022/06/12 01:28:40;;;;;;;11.02;3.83;;;12.20;99.90;;;;;;5125002;27;20092;-72
2022/06/12 01:31:31;;;;;;;12.05;3.30;;;12.10;99.90;;;;;;5125371;27;20050;-71
2022/06/12 01:34:06;;;;;;;11.50;3.72;;;12.10;99.90;;;;;;5125171;27;20049;-71
2022/06/12 01:37:10;;;;;;;9.70;3.40;;;12.10;99.90;;;;;;5125284;27;20047;-71
2022/06/12 01:39:42;;;;;;;9.30;3.35;;;12.10;99.90;;;;;;5143630;27;20031;-71
2022/06/12 01:42:32;;;;;;;12.93;3.55;;;12.20;99.90;;;;;;5126548;27;20038;-71
2022/06/12 01:45:03;;;;;;;12.70;3.35;;;12.20;99.90;;;;;;5143832;27;20081;-72
2022/06/12 01:47:35;;;;;;;9.80;3.75;;;12.10;99.90;;;;;;5123240;27;20510;-72
2022/06/12 01:50:07;;;;;;;8.85;3.65;;;12.10;99.90;;;;;;5126888;27;20125;-72
2022/06/12 01:52:48;;;;;;;13.07;3.60;;;12.10;99.90;;;;;;5143389;27;20103;-71
2022/06/12 01:55:35;;;;;;;11.02;3.90;;;12.10;99.90;;;;;;5125229;27;20031;-71
2022/06/12 01:58:20;;;;;;;8.65;3.97;;;12.10;99.90;;;;;;5143283;27;20036;-71
2022/06/12 02:01:05;;;;;;;9.88;3.85;;;12.00;99.90;;;;;;5123666;27;20039;-71
2022/06/12 02:03:43;;;;;;;7.75;3.40;;;12.00;99.90;;;;;;5127755;27;20035;-71
2022/06/12 02:06:18;;;;;;;10.20;4.10;;;12.90;99.90;;;;;;5143085;27;20054;-71
2022/06/12 02:08:54;;;;;;;10.95;3.58;;;12.50;99.90;;;;;;5123540;27;20031;-72
2022/06/12 02:14:46;;;;;;;12.63;3.97;;;12.00;99.90;;;;;;5142616;27;20043;-72
2022/06/12 02:17:21;;;;;;;15.55;3.95;;;12.00;99.90;;;;;;5125552;27;20053;-72
2022/06/12 02:19:49;;;;;;;11.18;3.72;;;12.20;99.90;;;;;;5145903;27;20081;-71
2022/06/12 02:22:25;;;;;;;11.90;3.60;;;12.00;99.90;;;;;;5126665;27;20034;-71
2022/06/12 02:24:55;;;;;;;;;;;12.00;99.90;;;;;;5142860;27;20047;-71
2022/06/12 02:27:29;;;;;;;12.40;3.40;;;12.00;99.90;;;;;;5126462;27;20327;-72
2022/06/12 02:30:05;;;;;;;11.85;3.65;;;12.00;99.90;;;;;;5123602;27;20428;-71
2022/06/12 02:32:36;;;;;;;12.35;3.72;;;12.10;99.90;;;;;;5125589;27;20129;-71
2022/06/12 02:35:08;;;;;;;11.38;3.38;;;12.10;99.90;;;;;;5124860;27;20046;-71
2022/06/12 02:37:40;;;;;;;8.07;3.92;;;12.10;99.90;;;;;;5142563;27;20109;-72
2022/06/12 02:40:18;;;;;;;15.63;3.67;;;12.10;99.90;;;;;;5125502;27;20051;-72
2022/06/12 02:42:47;;;;;;;13.27;3.90;;;12.10;99.90;;;;;;5123116;27;20068;-72
2022/06/12 02:45:28;;;;;;;11.15;3.63;;;12.10;99.90;;;;;;5126516;27;20048;-72
2022/06/12 02:47:54;;;;;;;9.65;3.45;;;12.10;99.90;;;;;;5123439;27;20123;-71
2022/06/12 02:50:22;;;;;;;8.90;3.92;;;12.10;99.90;;;;;;5124610;27;20038;-71
2022/06/12 02:53:06;;;;;;;10.40;4.05;;;12.00;99.90;;;;;;5122465;27;20057;-71
2022/06/12 02:55:58;;;;;;;12.98;3.97;;;12.00;99.90;;;;;;5122732;27;20039;-70
2022/06/12 02:58:37;;;;;;;13.25;3.65;;;12.50;99.90;;;;;;5141372;27;20057;-71
2022/06/12 03:01:11;;;;;;;15.57;4.40;;;12.10;99.90;;;;;;5142158;27;20564;-71
2022/06/12 03:04:12;;;;;;;14.65;3.65;;;12.10;99.90;;;;;;5125697;27;20397;-71
2022/06/12 03:06:40;;;;;;;11.13;3.55;;;12.10;99.90;;;;;;5125877;27;20122;-71
2022/06/12 03:09:06;;;;;;;10.75;4.00;;;12.00;99.90;;;;;;5141649;27;20110;-71
2022/06/12 03:11:36;;;;;;;9.38;3.72;;;12.10;99.90;;;;;;5127180;27;20054;-71
2022/06/12 03:14:08;;;;;;;11.65;3.90;;;12.10;99.90;;;;;;5125259;27;20111;-71
2022/06/12 03:16:37;;;;;;;12.07;4.10;;;12.00;99.90;;;;;;5122607;27;20044;-71
2022/06/12 03:19:42;;;;;;;14.63;4.18;;;12.00;99.90;;;;;;5123814;27;20130;-70
2022/06/12 03:22:10;;;;;;;14.32;4.65;;;12.00;99.90;;;;;;5114269;27;20153;-71
2022/06/12 03:24:53;;;;;;;13.07;4.55;;;12.10;99.90;;;;;;5140917;27;20168;-70
2022/06/12 03:27:43;;;;;;;13.38;4.38;;;12.00;99.90;;;;;;5122767;27;20047;-71
2022/06/12 03:30:11;;;;;;;8.43;3.97;;;12.00;99.90;;;;;;5122373;27;20042;-71
2022/06/12 03:32:55;;;;;;;12.85;3.95;;;12.10;99.90;;;;;;5137730;27;20038;-70
2022/06/12 03:35:32;;;;;;;12.85;4.40;;;12.00;99.90;;;;;;5141796;27;20078;-71
2022/06/12 03:38:46;;;;;;;11.32;4.72;;;12.00;99.90;;;;;;5123402;27;20095;-71
2022/06/12 03:41:31;;;;;;;10.05;4.40;;;12.00;99.90;;;;;;5080542;27;20050;-71
2022/06/12 03:44:19;;;;;;;13.40;4.30;;;12.00;99.90;;;;;;5122843;27;20374;-70
2022/06/12 03:46:58;;;;;;;14.73;4.10;;;12.00;99.90;;;;;;5122945;27;20057;-71
2022/06/12 03:49:29;;;;;;;12.93;4.47;;;12.00;99.90;;;;;;5122949;27;20043;-71
2022/06/12 03:51:57;;;;;;;17.67;5.30;;;12.10;99.90;;;;;;5124448;27;20047;-71
2022/06/12 03:54:31;;;;;;;16.45;5.28;;;12.40;99.90;;;;;;5122366;27;20091;-71
2022/06/12 04:00:17;;;;;;;11.73;4.50;;;12.10;99.90;;;;;;5124159;27;20039;-70
2022/06/12 04:02:50;;;;;;;12.48;4.00;;;12.20;99.90;;;;;;5123145;27;20065;-71
2022/06/12 04:05:27;;;;;;;7.93;4.10;;;12.30;99.90;;;;;;5144713;27;20027;-71
2022/06/12 04:07:57;;;;;;;11.82;4.15;;;12.30;99.90;;;;;;5123898;27;20079;-71
2022/06/12 04:10:26;;;;;;;11.23;4.15;;;12.30;99.90;;;;;;5122244;27;20030;-71
2022/06/12 04:12:52;;;;;;;13.52;4.38;;;12.40;99.90;;;;;;5121903;27;20050;-71
2022/06/12 04:15:27;;;;;;;13.88;4.57;;;12.40;99.90;;;;;;5141226;27;20080;-71
2022/06/12 04:17:55;;;;;;;13.13;4.07;;;12.50;99.90;;;;;;5125631;27;20053;-71
2022/06/12 04:20:48;;;;;;;14.73;4.80;;;12.50;99.90;;;;;;5125487;27;20046;-71
2022/06/12 04:23:26;;;;;;;9.38;4.28;;;12.60;99.90;;;;;;5112861;27;20060;-71
2022/06/12 04:26:07;;;;;;;12.40;4.30;;;12.90;99.90;;;;;;5123301;27;20086;-71
2022/06/12 04:28:41;;;;;;;15.00;4.55;;;12.60;99.90;;;;;;5143679;27;20413;-71
2022/06/12 04:31:12;;;;;;;15.02;4.97;;;12.60;99.90;;;;;;5128301;27;20121;-72
2022/06/12 04:34:15;;;;;;;12.65;4.50;;;12.70;99.90;;;;;;5146473;27;20042;-70
2022/06/12 04:36:44;;;;;;;12.30;4.47;;;12.60;99.90;;;;;;5143508;27;20389;-70
2022/06/12 04:39:16;;;;;;;13.88;4.30;;;12.90;99.90;;;;;;5145831;27;20057;-70
2022/06/12 04:41:43;;;;;;;11.15;4.43;;;12.90;99.90;;;;;;5145821;27;20031;-70
2022/06/12 04:44:09;;;;;;;11.85;4.28;;;13.00;99.90;;;;;;5125868;27;20383;-70
2022/06/12 04:46:36;;;;;;;;;;;13.10;99.90;;;;;;5146627;27;20043;-69
2022/06/12 04:49:03;;;;;;;12.00;4.22;;;13.20;99.90;;;;;;5125506;27;19919;-69
2022/06/12 04:51:28;;;;;;;13.80;4.32;;;13.30;99.90;;;;;;5128081;27;20080;-70
2022/06/12 04:53:54;;;;;;;;;;;13.40;99.90;;;;;;5124637;27;20035;-69
2022/06/12 04:56:23;;;;;;;15.23;4.75;;;13.50;99.90;;;;;;5130671;27;19971;-69
2022/06/12 04:58:51;;;;;;;14.80;4.82;;;13.60;99.90;;;;;;5143826;27;20039;-68
2022/06/12 05:01:17;;;;;;;15.15;4.80;;;13.60;99.90;;;;;;5128059;27;20083;-70
2022/06/12 05:03:43;;;;;;;17.33;4.75;;;13.80;99.90;;;;;;5125439;27;20038;-70
2022/06/12 05:06:10;;;;;;;;;;;13.80;99.90;;;;;;5145953;27;20078;-71
2022/06/12 05:08:35;;;;;;;14.65;4.70;;;13.90;99.90;;;;;;5143772;27;19954;-73
2022/06/12 05:11:01;;;;;;;15.57;4.97;;;14.00;99.90;;;;;;5146772;27;20089;-71
2022/06/12 05:13:27;;;;;;;;;;;14.10;99.90;;;;;;5147986;27;20591;-71
2022/06/12 05:15:52;;;;;;;18.98;5.18;;;14.20;99.90;;;;;;5124644;27;19915;-71
2022/06/12 05:18:20;;;;;;;19.38;5.43;;;14.30;99.90;;;;;;5124192;27;20046;-71
2022/06/12 05:20:47;;;;;;;16.65;5.32;;;14.30;99.90;;;;;;5128590;27;20521;-71
2022/06/12 05:23:13;;;;;;;19.80;5.97;;;14.30;99.90;;;;;;5124919;27;20520;-71
2022/06/12 05:25:41;;;;;;;21.38;6.05;;;14.40;99.90;;;;;;5124108;27;20054;-71
2022/06/12 05:28:07;;;;;;;20.75;5.75;;;14.40;99.90;;;;;;5127946;27;20477;-71
2022/06/12 05:30:35;;;;;;;16.60;5.60;;;14.50;99.90;;;;;;5126309;27;20035;-71
2022/06/12 05:33:01;;;;;;;18.13;5.20;;;14.60;99.90;;;;;;5143732;27;20062;-71
2022/06/12 05:35:28;;;;;;;25.38;6.63;;;14.70;99.90;;;;;;5149884;27;20079;-71
2022/06/12 05:37:54;;;;;;;21.40;6.43;;;14.80;99.90;;;;;;5125046;27;20043;-71
2022/06/12 05:40:27;;;;;;;20.73;6.32;;;14.90;99.90;;;;;;5145765;27;20049;-71
2022/06/12 05:42:53;;;;;;;20.58;5.50;;;15.00;99.90;;;;;;5126980;27;20508;-71
2022/06/12 05:45:25;;;;;;;21.80;6.00;;;15.10;99.90;;;;;;5127815;27;20034;-71
2022/06/12 05:47:54;;;;;;;19.63;5.97;;;15.20;99.90;;;;;;5123953;27;20055;-71
2022/06/12 05:50:22;;;;;;;23.33;6.70;;;15.30;99.90;;;;;;5127460;27;20089;-71
2022/06/12 05:52:48;;;;;;;22.08;6.20;;;15.40;99.90;;;;;;5142241;27;20177;-71
2022/06/12 05:55:15;;;;;;;23.75;6.85;;;15.50;99.90;;;;;;5127244;27;20034;-71
2022/06/12 05:57:41;;;;;;;16.27;5.65;;;15.60;99.90;;;;;;5127055;27;20050;-71
2022/06/12 06:00:13;;;;;;;19.67;5.93;;;15.80;99.90;;;;;;5145330;27;20041;-72
2022/06/12 06:02:38;;;;;;;22.85;5.43;;;15.80;99.90;;;;;;5124477;27;20126;-71
2022/06/12 06:05:08;;;;;;;26.75;6.50;;;15.90;99.90;;;;;;5126449;27;20130;-70
2022/06/12 06:07:35;;;;;;;15.38;5.20;;;15.90;99.90;;;;;;5141979;27;20401;-70
2022/06/12 06:10:03;;;;;;;20.23;6.30;;;16.00;99.90;;;;;;5126008;27;20043;-71
2022/06/12 06:12:29;;;;;;;22.45;5.70;;;16.00;99.90;;;;;;5143358;27;20035;-71
2022/06/12 06:14:54;;;;;;;18.05;4.95;;;16.10;99.90;;;;;;5127322;27;20039;-70
2022/06/12 06:17:20;;;;;;;18.45;5.10;;;16.10;99.90;;;;;;5144094;27;20054;-70
2022/06/12 06:19:46;;;;;;;21.00;5.60;;;16.20;99.90;;;;;;5143671;27;20102;-69
2022/06/12 06:22:16;;;;;;;19.02;5.90;;;16.30;99.90;;;;;;5123071;27;20047;-70
2022/06/12 06:24:42;;;;;;;13.93;5.30;;;16.30;99.90;;;;;;5141821;27;20481;-70
2022/06/12 06:27:09;;;;;;;16.88;5.57;;;16.40;99.90;;;;;;5149133;27;20545;-71
2022/06/12 06:29:36;;;;;;;18.13;5.03;;;16.50;99.90;;;;;;5130737;27;20034;-70
2022/06/12 06:32:03;;;;;;;18.13;4.82;;;16.60;99.90;;;;;;5125364;27;20076;-71
2022/06/12 06:34:29;;;;;;;22.42;5.22;;;16.80;99.90;;;;;;5131478;27;20397;-70
2022/06/12 06:36:54;;;;;;;15.48;4.60;;;16.80;99.90;;;;;;5149365;27;20418;-70
2022/06/12 06:39:20;;;;;;;18.40;4.82;;;16.00;99.90;;;;;;5131311;27;20043;-71
2022/06/12 06:41:46;;;;;;;11.75;3.13;;;17.10;99.90;;;;;;5150333;27;20042;-70
2022/06/12 06:46:56;;;;;;;11.40;3.15;;;17.30;99.90;;;;;;5128501;27;20046;-71
2022/06/12 06:49:23;;;;;;;11.70;3.40;;;17.40;99.90;;;;;;5122541;27;20047;-70
2022/06/12 06:51:49;;;;;;;10.90;3.22;;;17.50;99.90;;;;;;5121034;27;20043;-70
2022/06/12 06:54:15;;;;;;;11.98;3.50;;;17.60;99.90;;;;;;5124309;27;20379;-71
2022/06/12 06:56:41;;;;;;;8.25;2.75;;;17.70;99.90;;;;;;5143563;27;20031;-71
2022/06/12 06:59:07;;;;;;;8.98;2.92;;;17.80;99.90;;;;;;5125055;27;20034;-70
2022/06/12 07:01:34;;;;;;;9.90;2.97;;;17.90;99.90;;;;;;5129215;27;20039;-71
2022/06/12 07:04:00;;;;;;;9.70;2.67;;;17.90;99.90;;;;;;5122047;27;20116;-71
2022/06/12 07:06:25;;;;;;;12.27;2.85;;;18.00;99.90;;;;;;5125238;27;20046;-71
2022/06/12 07:08:52;;;;;;;8.32;2.90;;;18.10;99.90;;;;;;5130685;27;20090;-69
2022/06/12 07:11:18;;;;;;;11.88;2.67;;;18.10;99.90;;;;;;5130034;27;20496;-72
2022/06/12 07:13:44;;;;;;;9.95;2.85;;;18.20;99.90;;;;;;5130679;27;20038;-71
2022/06/12 07:16:10;;;;;;;8.32;2.70;;;18.20;99.90;;;;;;5128009;27;20454;-70
2022/06/12 07:18:35;;;;;;;9.50;2.72;;;18.30;99.90;;;;;;5122543;27;20038;-70
2022/06/12 07:21:02;;;;;;;9.35;2.63;;;18.70;99.90;;;;;;5144347;27;20039;-71
2022/06/12 07:23:30;;;;;;;8.95;2.40;;;19.40;99.90;;;;;;5122297;27;20074;-72
2022/06/12 07:26:01;;;;;;;7.20;2.70;;;20.20;99.90;;;;;;5126124;27;20074;-72
2022/06/12 07:28:28;;;;;;;8.90;2.78;;;20.90;99.90;;;;;;5122422;27;20436;-72
2022/06/12 07:30:54;;;;;;;7.72;2.53;;;21.50;99.90;;;;;;5143059;27;20037;-72
2022/06/12 07:33:20;;;;;;;8.88;2.25;;;21.90;99.90;;;;;;5145756;27;20576;-72
2022/06/12 07:35:47;;;;;;;6.95;2.30;;;22.20;99.90;;;;;;5142023;27;20031;-72
2022/06/12 07:38:15;;;;;;;8.43;2.20;;;22.30;99.90;;;;;;5123529;27;20097;-72
2022/06/12 07:40:45;;;;;;;4.53;1.85;;;22.30;99.90;;;;;;5143019;27;20039;-71
2022/06/12 07:43:12;;;;;;;8.10;2.65;;;22.70;99.90;;;;;;5123889;27;20043;-70
2022/06/12 07:45:40;;;;;;;6.32;2.22;;;23.20;99.90;;;;;;5125661;27;20042;-70
2022/06/12 07:48:06;;;;;;;8.20;2.60;;;23.80;99.90;;;;;;5141654;27;20543;-70
2022/06/12 07:50:32;;;;;;;6.03;2.22;;;24.20;99.90;;;;;;5125078;27;20031;-71
2022/06/12 07:52:58;;;;;;;9.40;2.63;;;24.60;99.90;;;;;;5140300;27;20122;-71
2022/06/12 07:55:25;;;;;;;8.68;2.35;;;24.60;99.40;;;;;;5141781;27;20034;-72
2022/06/12 07:57:52;;;;;;;6.25;1.90;;;24.60;97.60;;;;;;5125570;27;20047;-72
2022/06/12 08:00:18;;;;;;;8.02;2.10;;;24.90;98.30;;;;;;5121724;27;20493;-71
2022/06/12 08:02:45;;;;;;;3.67;1.80;;;25.30;98.40;;;;;;5124726;27;20486;-72
2022/06/12 08:05:12;;;;;;;6.10;2.15;;;25.50;97.50;;;;;;5122867;27;20051;-73
2022/06/12 08:07:39;;;;;;;4.35;2.10;;;25.80;97.50;;;;;;5141787;27;20035;-73
2022/06/12 08:10:05;;;;;;;6.25;2.13;;;25.90;96.50;;;;;;5123932;27;20122;-73
2022/06/12 08:12:33;;;;;;;6.32;2.25;;;25.90;96.10;;;;;;5124824;27;20088;-73
2022/06/12 08:14:59;;;;;;;5.47;2.08;;;26.10;96.20;;;;;;5123951;27;20046;-72
2022/06/12 08:17:25;;;;;;;5.78;2.03;;;26.50;96.30;;;;;;5122398;27;20063;-73
2022/06/12 08:22:35;;;;;;;6.07;2.28;;;26.40;95.70;;;;;;5141727;27;20039;-73
2022/06/12 08:25:01;;;;;;;5.82;2.10;;;25.80;95.90;;;;;;5123600;27;20534;-73
2022/06/12 08:27:27;;;;;;;6.15;2.10;;;25.90;95.80;;;;;;5121321;27;20069;-72
2022/06/12 08:29:52;;;;;;;6.80;2.30;;;25.50;95.70;;;;;;5123339;27;20039;-72
2022/06/12 08:32:21;;;;;;;5.65;2.20;;;25.40;96.00;;;;;;5125395;27;20046;-72
2022/06/12 08:34:57;;;;;;;5.75;1.92;;;25.30;95.40;;;;;;5120782;28;20035;-71
2022/06/12 08:37:30;;;;;;;7.07;2.30;;;25.40;94.80;;;;;;5121965;27;20130;-71
2022/06/12 08:39:57;;;;;;;4.38;1.67;;;25.30;94.40;;;;;;5124578;27;20066;-71
2022/06/12 08:42:27;;;;;;;5.82;2.00;;;25.00;95.00;;;;;;5139642;27;20478;-72
2022/06/12 08:45:14;;;;;;;6.07;2.17;;;25.00;95.20;;;;;;5124726;27;20091;-71
2022/06/12 08:48:02;;;;;;;6.95;2.05;;;25.20;95.10;;;;;;5125575;27;20577;-71
2022/06/12 08:50:57;;;;;;;5.80;2.45;;;25.40;94.40;;;;;;5140636;27;20760;-72
2022/06/12 08:53:37;;;;;;;8.43;2.50;;;25.50;94.90;;;;;;5140843;27;20031;-72
2022/06/12 08:56:16;;;;;;;5.63;2.17;;;25.70;95.20;;;;;;5141906;27;20073;-70
2022/06/12 08:59:06;;;;;;;4.97;1.92;;;26.10;94.60;;;;;;5140139;27;20045;-71
2022/06/12 09:01:35;;;;;;;6.32;2.10;;;26.00;93.90;;;;;;5126702;27;20049;-70
2022/06/12 09:04:01;;;;;;;8.38;2.00;;;26.30;94.40;;;;;;5140591;27;20038;-72
2022/06/12 09:06:40;;;;;;;6.25;2.42;;;26.60;95.00;;;;;;5123014;27;20038;-69
2022/06/12 09:09:14;;;;;;;8.13;2.33;;;26.60;93.10;;;;;;5122119;27;20379;-70
2022/06/12 09:11:46;;;;;;;5.80;2.15;;;26.10;93.30;;;;;;5121173;27;20183;-69
2022/06/12 09:14:27;;;;;;;4.72;2.10;;;26.00;94.00;;;;;;5146906;27;20473;-70
2022/06/12 09:17:11;;;;;;;6.45;2.35;;;26.00;94.20;;;;;;5123721;27;20058;-69
2022/06/12 09:19:54;;;;;;;8.32;2.20;;;26.30;94.00;;;;;;5146636;27;20031;-73
2022/06/12 09:22:41;;;;;;;6.50;2.50;;;26.60;94.70;;;;;;5144527;27;20118;-73
2022/06/12 09:25:11;;;;;;;6.15;2.72;;;26.10;93.20;;;;;;5142783;27;20047;-72
2022/06/12 09:27:51;;;;;;;6.55;2.30;;;25.90;93.30;;;;;;5128529;27;20038;-72
2022/06/12 09:30:31;;;;;;;8.40;2.65;;;25.80;93.80;;;;;;5130952;27;20039;-73
2022/06/12 09:33:00;;;;;;;5.60;2.50;;;26.00;94.80;;;;;;5128501;27;20486;-77
2022/06/12 09:35:53;;;;;;;7.05;2.60;;;26.10;94.50;;;;;;5126913;27;20031;-71
2022/06/12 09:38:39;;;;;;;6.97;2.28;;;26.20;93.80;;;;;;5150758;27;20385;-73
2022/06/12 09:41:21;;;;;;;8.30;2.20;;;26.10;92.90;;;;;;5124509;27;20134;-72
2022/06/12 09:44:09;;;;;;;5.93;2.33;;;26.20;93.80;;;;;;5125383;27;20486;-74
2022/06/12 09:46:49;;;;;;;6.75;2.30;;;26.30;93.30;;;;;;5143936;27;20096;-71
2022/06/12 09:49:33;;;;;;;6.15;2.50;;;26.10;93.30;;;;;;5125272;27;20047;-74
2022/06/12 09:52:21;;;;;;;7.32;2.35;;;26.10;93.00;;;;;;5124568;27;20035;-72
2022/06/12 09:54:56;;;;;;;5.90;2.10;;;26.00;93.80;;;;;;5125407;27;20395;-70
2022/06/12 09:57:38;;;;;;;10.52;2.80;;;26.00;93.80;;;;;;5125337;27;20038;-71
2022/06/12 10:00:10;;;;;;;7.47;2.42;;;26.40;94.10;;;;;;5142477;27;20100;-71
2022/06/12 10:02:49;;;;;;;6.82;2.20;;;26.30;93.20;;;;;;5128459;27;20497;-73
2022/06/12 10:05:26;;;;;;;9.60;3.20;;;26.00;93.70;;;;;;5143638;27;20110;-70
2022/06/12 10:08:03;;;;;;;7.03;2.80;;;26.20;93.20;;;;;;5123938;27;20042;-71
2022/06/12 10:10:51;;;;;;;6.88;2.50;;;26.00;93.50;;;;;;5126009;27;20054;-70
2022/06/12 10:13:35;;;;;;;8.65;3.03;;;26.00;93.70;;;;;;5137690;27;20035;-69
2022/06/12 10:16:08;;;;;;;6.88;2.15;;;25.90;93.50;;;;;;5121279;27;20922;-73
2022/06/12 10:18:48;;;;;;;11.75;2.97;;;25.70;93.70;;;;;;5141996;27;20050;-73
2022/06/12 10:21:21;;;;;;;8.57;2.90;;;25.80;94.00;;;;;;5126554;27;20481;-73
2022/06/12 10:23:49;;;;;;;6.75;2.53;;;26.20;94.00;;;;;;5119010;27;20053;-72
2022/06/12 10:26:19;;;;;;;6.88;3.00;;;25.60;93.40;;;;;;5140802;27;20435;-71
2022/06/12 10:28:45;;;;;;;8.18;2.75;;;25.70;93.70;;;;;;5121426;27;20034;-69
2022/06/12 10:31:11;;;;;;;6.57;2.65;;;25.50;93.90;;;;;;5122709;27;20046;-71
2022/06/12 10:33:53;;;;;;;11.35;3.40;;;25.40;93.70;;;;;;5121948;27;20058;-72
2022/06/12 10:36:26;;;;;;;6.53;2.55;;;25.30;94.60;;;;;;5136562;27;20080;-70
2022/06/12 10:39:08;;;;;;;9.85;3.05;;;25.50;94.00;;;;;;5126409;27;20043;-70
2022/06/12 10:41:46;;;;;;;9.27;3.17;;;25.50;95.00;;;;;;5122603;27;20039;-70
2022/06/12 10:44:34;;;;;;;9.02;3.00;;;25.50;94.20;;;;;;5125807;27;20050;-70
2022/06/12 10:47:30;;;;;;;10.38;3.42;;;25.40;95.00;;;;;;5141986;27;20058;-70
2022/06/12 10:50:20;;;;;;;7.27;2.90;;;25.00;94.00;;;;;;5123207;27;20490;-71
2022/06/12 10:52:55;;;;;;;7.53;2.50;;;25.20;93.90;;;;;;5125011;27;20446;-70
2022/06/12 10:55:57;;;;;;;8.63;2.90;;;25.40;93.30;;;;;;5117434;27;20043;-72
2022/06/12 10:58:54;;;;;;;6.63;2.60;;;25.30;94.20;;;;;;5109682;27;20047;-72
2022/06/12 11:01:38;;;;;;;6.82;2.65;;;25.10;94.20;;;;;;5127006;27;20138;-73
2022/06/12 11:04:22;;;;;;;8.30;2.92;;;24.90;93.80;;;;;;5123358;27;20031;-73
2022/06/12 11:06:53;;;;;;;8.15;2.35;;;24.90;94.50;;;;;;5138964;27;20042;-73
2022/06/12 11:09:34;;;;;;;7.22;3.08;;;24.80;94.30;;;;;;5130207;27;20088;-70
2022/06/12 11:12:27;;;;;;;10.30;2.80;;;25.10;94.60;;;;;;5146752;27;20058;-74
2022/06/12 11:15:17;;;;;;;7.57;3.30;;;24.70;94.30;;;;;;5129949;27;20034;-72
2022/06/12 11:18:08;;;;;;;5.57;1.80;;;24.80;94.10;;;;;;5125299;27;20043;-72
2022/06/12 11:21:01;;;;;;;7.93;2.72;;;24.50;93.50;;;;;;5122581;27;20042;-71
2022/06/12 11:23:53;;;;;;;6.85;2.47;;;24.50;94.60;;;;;;5135962;27;20402;-71
2022/06/12 11:26:39;;;;;;;5.75;2.65;;;24.70;92.40;;;;;;5121194;27;20035;-71
2022/06/12 11:29:33;;;;;;;5.30;2.33;;;24.30;93.30;;;;;;5123919;27;20050;-71
2022/06/12 11:32:17;;;;;;;7.22;2.83;;;24.40;93.90;;;;;;5124455;27;20036;-70
2022/06/12 11:35:03;;;;;;;8.98;2.70;;;24.10;93.90;;;;;;5122558;27;20039;-69
2022/06/12 11:37:47;;;;;;;6.95;2.42;;;24.30;93.30;;;;;;5121842;27;20070;-71
2022/06/12 11:40:45;;;;;;;7.32;2.45;;;23.90;93.70;;;;;;5141546;27;20126;-69
2022/06/12 11:43:18;;;;;;;8.05;2.45;;;23.40;93.60;;;;;;5123438;27;20383;-70
2022/06/12 11:46:06;;;;;;;7.80;2.95;;;23.50;94.20;;;;;;5120180;27;20049;-72
2022/06/12 11:48:56;;;;;;;7.32;2.58;;;23.40;95.40;;;;;;5120676;27;20398;-74
2022/06/12 11:51:27;;;;;;;11.40;2.83;;;23.90;96.00;;;;;;5120226;27;20043;-72
2022/06/12 11:54:14;;;;;;;8.23;3.10;;;23.90;95.00;;;;;;5125827;27;20046;-71
2022/06/12 11:56:56;;;;;;;6.68;2.70;;;23.60;95.40;;;;;;5125086;27;20035;-70
2022/06/12 11:59:59;;;;;;;5.93;2.85;;;23.10;95.20;;;;;;5121311;27;20130;-69
2022/06/12 12:02:50;;;;;;;8.57;3.58;;;22.80;95.80;;;;;;5120965;27;20398;-69
2022/06/12 12:05:18;;;;;;;7.97;3.38;;;22.40;96.10;;;;;;5124674;27;20043;-69
2022/06/12 12:08:14;;;;;;;6.28;2.75;;;22.20;96.60;;;;;;5119737;28;20039;-73
2022/06/12 12:10:58;;;;;;;10.30;2.60;;;21.90;96.70;;;;;;5121395;27;20035;-72
2022/06/12 12:13:37;;;;;;;8.02;3.05;;;21.90;96.90;;;;;;5124186;27;20051;-73
2022/06/12 12:16:08;;;;;;;7.70;3.08;;;22.00;96.90;;;;;;5140671;27;20049;-72
2022/06/12 12:18:44;;;;;;;8.27;3.17;;;21.90;98.00;;;;;;5120477;27;20076;-80
2022/06/12 12:21:33;;;;;;;8.75;2.78;;;21.60;98.50;;;;;;5125513;27;20035;-72
2022/06/12 12:24:00;;;;;;;8.10;3.00;;;21.10;99.60;;;;;;5118338;27;20116;-71
2022/06/12 12:26:31;;;;;;;13.25;3.55;;;21.10;99.90;;;;;;5141377;27;20031;-72
2022/06/12 12:29:00;;;;;;;7.28;2.97;;;20.80;99.90;;;;;;5126700;27;20057;-70
2022/06/12 12:31:27;;;;;;;9.75;2.78;;;20.80;99.40;;;;;;5143366;27;20038;-74
2022/06/12 12:33:54;;;;;;;9.57;2.50;;;21.00;99.50;;;;;;5124296;27;20172;-70
2022/06/12 12:42:05;;;;;;;7.22;2.42;;;22.20;96.90;;;;;;5137550;27;20047;-70
2022/06/12 12:44:37;;;;;;;7.30;2.60;;;22.70;96.40;;;;;;5123962;27;20397;-71
2022/06/12 12:47:15;;;;;;;7.63;3.60;;;22.50;96.30;;;;;;5142608;27;20055;-71
2022/06/12 12:49:42;;;;;;;7.20;3.10;;;22.40;96.70;;;;;;5121320;27;20050;-71
2022/06/12 12:52:14;;;;;;;6.47;2.47;;;22.10;97.10;;;;;;5126183;27;20031;-72
2022/06/12 12:54:55;;;;;;;8.13;2.80;;;21.90;97.00;;;;;;5127376;27;20041;-71
2022/06/12 12:57:37;;;;;;;8.85;3.45;;;22.10;97.10;;;;;;5126924;27;20043;-71
2022/06/12 13:00:31;;;;;;;10.35;4.35;;;22.40;97.50;;;;;;5143349;27;20398;-71
2022/06/12 13:03:43;;;;;;;8.88;3.50;;;22.70;97.40;;;;;;5127519;27;20051;-71
2022/06/12 13:06:38;;;;;;;10.25;3.15;;;22.40;97.10;;;;;;5071165;28;20528;-71
2022/06/12 13:09:21;;;;;;;10.00;3.42;;;21.90;97.90;;;;;;5049850;28;20040;-72
2022/06/12 13:12:25;;;;;;;10.43;3.38;;;21.60;97.90;;;;;;5114972;27;20055;-70
2022/06/12 13:15:21;;;;;;;10.52;3.50;;;21.10;99.40;;;;;;5051800;27;20134;-70
2022/06/12 13:18:24;;;;;;;11.65;3.55;;;20.80;99.70;;;;;;5125156;27;20149;-70
2022/06/12 13:21:21;;;;;;;7.72;3.08;;;20.50;99.90;;;;;;5127347;27;20043;-70
2022/06/12 13:24:21;;;;;;;10.45;3.50;;;20.20;99.90;;;;;;5138804;27;20375;-71
2022/06/12 13:26:47;;;;;;;9.43;3.28;;;20.50;99.90;;;;;;5123949;27;20043;-71
2022/06/12 13:29:19;;;;;;;7.35;3.47;;;20.90;99.90;;;;;;5132099;27;20034;-70
2022/06/12 13:32:02;;;;;;;9.45;3.15;;;21.00;99.70;;;;;;5141263;27;20051;-69
2022/06/12 13:34:30;;;;;;;7.38;3.45;;;21.30;99.90;;;;;;5141409;27;20035;-69
2022/06/12 13:36:58;;;;;;;7.88;2.75;;;21.40;99.20;;;;;;5123589;27;20047;-69
2022/06/12 13:39:38;;;;;;;8.98;2.72;;;21.30;98.50;;;;;;5124566;27;20042;-70
2022/06/12 13:42:12;;;;;;;7.72;3.00;;;21.80;98.40;;;;;;5123507;27;20047;-72
2022/06/12 13:44:38;;;;;;;9.23;3.45;;;21.90;98.20;;;;;;5120067;27;20096;-72